Kappa, Illinois
Current Conditions -  °F | °C
As of 1:56 AM on Saturday 25 Oct 2014 (Local Time) from KBMI Reporting Station
Broken Clouds Broken Clouds  
Wind Chill: 60°   Ceiling: 3700
Heat Index: 60°   Visibility: 10mi
Dew Point: 53°   Wind: 9mph
Humidity: 78%   Direction: 230°SW
Pressure: 29.96"   Gusts: NA
Location:  40.7564°N, 89.0023°W
Report Text: KBMI 250656Z AUTO 23008KT 10SM FEW029 BKN037 16/12 A2996 RMK AO2 T01550116 BKN V OVC SLP140
Loading
Personal Weather Stations






























Interactive Weather Map
Tropical Storm Tracking
New forecast layout! Learn more

10-Day Weather Forecast

Advertisements
Track Severe Weather on mobile